createdAt,value
2022-10-20T00:00:48.154Z,5.80
2022-10-20T00:03:54.176Z,5.70
2022-10-20T00:06:57.596Z,5.70
2022-10-20T00:10:00.925Z,5.60
2022-10-20T00:13:04.402Z,6.40
2022-10-20T00:16:08.473Z,5.60
2022-10-20T00:19:13.479Z,5.60
2022-10-20T00:22:17.245Z,6.30
2022-10-20T00:25:20.531Z,5.70
2022-10-20T00:28:23.575Z,5.80
2022-10-20T00:31:27.674Z,5.80
2022-10-20T00:34:31.970Z,5.80
2022-10-20T00:37:35.127Z,6.40
2022-10-20T00:40:38.267Z,5.90
2022-10-20T00:43:48.645Z,5.90
2022-10-20T00:46:51.928Z,5.90
2022-10-20T00:50:01.874Z,5.80
2022-10-20T00:53:06.698Z,5.80
2022-10-20T00:56:10.814Z,5.70
2022-10-20T00:59:17.419Z,5.70
2022-10-20T01:02:21.328Z,5.70
2022-10-20T01:05:26.136Z,5.70
2022-10-20T01:08:29.373Z,5.70
2022-10-20T01:11:46.374Z,5.70
2022-10-20T01:15:02.437Z,5.70
2022-10-20T01:18:16.162Z,5.70
2022-10-20T01:21:52.330Z,5.70
2022-10-20T01:25:17.784Z,5.60
2022-10-20T01:28:31.335Z,5.50
2022-10-20T01:31:45.157Z,6.40
2022-10-20T01:34:58.473Z,4.50
2022-10-20T01:38:12.830Z,5.50
2022-10-20T01:41:21.408Z,5.50
2022-10-20T01:44:30.566Z,5.50
2022-10-20T01:47:37.510Z,5.50
2022-10-20T01:50:42.782Z,5.50
2022-10-20T01:53:45.898Z,5.50
2022-10-20T01:57:14.395Z,5.60
2022-10-20T02:00:19.438Z,5.50
2022-10-20T02:03:39.791Z,5.60
2022-10-20T02:06:52.770Z,5.60
2022-10-20T02:10:06.654Z,5.60
2022-10-20T02:13:13.406Z,5.70
2022-10-20T02:16:26.858Z,5.70
2022-10-20T02:19:36.070Z,5.80
2022-10-20T02:22:41.347Z,5.80
2022-10-20T02:25:44.800Z,5.90
2022-10-20T02:28:54.227Z,5.70
2022-10-20T02:31:59.602Z,5.90
2022-10-20T02:35:06.952Z,5.90
2022-10-20T02:38:10.017Z,6.00
2022-10-20T02:41:13.488Z,6.00
2022-10-20T02:44:16.615Z,6.00
2022-10-20T02:47:22.395Z,5.90
2022-10-20T02:50:25.632Z,6.00
2022-10-20T02:53:28.838Z,6.00
2022-10-20T02:56:32.004Z,5.90
2022-10-20T02:59:35.123Z,5.90
2022-10-20T03:02:40.919Z,6.10
2022-10-20T03:05:44.496Z,5.90
2022-10-20T03:08:47.703Z,5.80
2022-10-20T03:11:50.892Z,5.80
2022-10-20T03:14:53.938Z,5.80
2022-10-20T03:17:58.628Z,5.80
2022-10-20T03:21:01.759Z,5.80
2022-10-20T03:24:05.532Z,5.80
2022-10-20T03:27:08.595Z,5.70
2022-10-20T03:30:12.539Z,5.70
2022-10-20T03:33:17.070Z,5.80
2022-10-20T03:36:20.304Z,5.30
2022-10-20T03:39:23.500Z,5.90
2022-10-20T03:42:26.615Z,5.70
2022-10-20T03:45:29.875Z,5.70
2022-10-20T03:48:35.424Z,5.70
2022-10-20T03:51:38.619Z,5.80
2022-10-20T03:54:41.843Z,5.70
2022-10-20T03:57:46.372Z,5.70
2022-10-20T04:00:51.076Z,5.80
2022-10-20T04:03:55.705Z,5.70
2022-10-20T04:06:58.770Z,5.70
2022-10-20T04:10:02.855Z,5.70
2022-10-20T04:13:09.207Z,5.80
2022-10-20T04:16:12.577Z,5.80
2022-10-20T04:19:17.954Z,5.80
2022-10-20T04:22:21.187Z,5.80
2022-10-20T04:25:28.373Z,5.80
2022-10-20T04:28:31.617Z,5.80
2022-10-20T04:31:35.689Z,5.80
2022-10-20T04:34:40.139Z,5.80
2022-10-20T04:37:47.583Z,5.90
2022-10-20T04:40:58.086Z,5.90
2022-10-20T04:44:04.900Z,5.80
2022-10-20T04:47:08.079Z,5.90
2022-10-20T04:50:12.976Z,5.90
2022-10-20T04:53:16.162Z,5.90
2022-10-20T04:56:23.284Z,5.90
2022-10-20T04:59:26.439Z,5.80
2022-10-20T05:02:31.257Z,5.90
2022-10-20T05:05:35.726Z,6.90
2022-10-20T05:08:39.237Z,5.90
2022-10-20T05:11:43.653Z,5.80
2022-10-20T05:14:46.725Z,5.80
2022-10-20T05:17:49.779Z,5.70
2022-10-20T05:21:10.932Z,5.40
2022-10-20T05:24:20.817Z,5.70
2022-10-20T05:27:32.604Z,5.60
2022-10-20T05:30:39.823Z,5.70
2022-10-20T05:33:47.057Z,5.70
2022-10-20T05:36:53.966Z,6.00
2022-10-20T05:39:56.959Z,5.70
2022-10-20T05:43:00.115Z,5.70
2022-10-20T05:46:04.828Z,5.70
2022-10-20T05:49:08.694Z,5.70
2022-10-20T05:52:13.175Z,5.40
2022-10-20T05:55:16.505Z,5.80
2022-10-20T05:58:22.994Z,5.90
2022-10-20T06:01:39.447Z,5.90
2022-10-20T06:04:42.635Z,5.90
2022-10-20T06:07:47.176Z,6.00
2022-10-20T06:10:50.252Z,6.00
2022-10-20T06:13:53.823Z,6.10
2022-10-20T06:16:57.686Z,7.30
2022-10-20T06:20:01.893Z,6.20
2022-10-20T06:23:06.224Z,6.20
2022-10-20T06:26:12.516Z,6.30
2022-10-20T06:29:18.683Z,6.30
2022-10-20T06:32:21.903Z,6.30
2022-10-20T06:35:25.222Z,6.40
2022-10-20T06:38:30.054Z,6.50
2022-10-20T06:41:33.891Z,7.30
2022-10-20T06:44:37.125Z,6.80
2022-10-20T06:47:40.461Z,7.10
2022-10-20T06:50:43.821Z,7.50
2022-10-20T06:53:48.738Z,7.80
2022-10-20T06:56:51.859Z,8.20
2022-10-20T06:59:55.007Z,8.60
2022-10-20T07:02:58.078Z,9.00
2022-10-20T07:06:01.688Z,9.30
2022-10-20T07:09:09.161Z,9.60
2022-10-20T07:12:12.381Z,10.00
2022-10-20T07:15:15.694Z,10.20
2022-10-20T07:18:18.794Z,9.60
2022-10-20T07:21:30.732Z,10.70
2022-10-20T07:24:39.416Z,10.90
2022-10-20T07:27:42.510Z,11.10
2022-10-20T07:30:45.732Z,11.30
2022-10-20T07:34:06.758Z,11.50
2022-10-20T07:37:13.330Z,11.50
2022-10-20T07:40:18.686Z,11.80
2022-10-20T07:43:22.191Z,11.90
2022-10-20T07:46:26.749Z,12.10
2022-10-20T07:49:45.576Z,12.20
2022-10-20T07:52:52.931Z,12.30
2022-10-20T07:55:57.607Z,12.40
2022-10-20T07:59:01.288Z,12.50
2022-10-20T08:02:05.011Z,12.60
2022-10-20T08:05:09.350Z,12.70
2022-10-20T08:08:12.480Z,12.70
2022-10-20T08:11:17.235Z,12.80
2022-10-20T08:14:20.498Z,12.90
2022-10-20T08:17:23.635Z,13.00
2022-10-20T08:20:28.105Z,13.00
2022-10-20T08:23:31.366Z,13.10
2022-10-20T08:26:36.224Z,13.70
2022-10-20T08:29:39.836Z,13.20
2022-10-20T08:32:43.292Z,13.20
2022-10-20T08:35:46.382Z,13.20
2022-10-20T08:38:50.613Z,13.30
2022-10-20T08:42:08.055Z,13.40
2022-10-20T08:45:17.875Z,13.30
2022-10-20T08:48:25.122Z,13.40
2022-10-20T08:51:33.519Z,13.40
2022-10-20T08:54:36.693Z,13.50
2022-10-20T08:57:42.170Z,13.40
2022-10-20T09:00:47.687Z,13.50
2022-10-20T09:03:57.373Z,13.50
2022-10-20T09:07:06.479Z,13.60
2022-10-20T09:10:26.553Z,13.60
2022-10-20T09:13:34.277Z,13.70
2022-10-20T09:16:58.732Z,13.70
2022-10-20T09:20:04.688Z,13.70
2022-10-20T09:23:28.357Z,13.70
2022-10-20T09:26:57.593Z,13.80
2022-10-20T09:30:17.307Z,13.80
2022-10-20T09:33:31.057Z,13.80
2022-10-20T09:36:37.602Z,13.80
2022-10-20T09:39:55.456Z,13.80
2022-10-20T09:43:07.873Z,13.80
2022-10-20T09:46:13.203Z,13.80
2022-10-20T09:49:29.011Z,13.90
2022-10-20T09:52:47.631Z,13.80
2022-10-20T09:55:52.880Z,13.80
2022-10-20T09:58:58.472Z,13.90
2022-10-20T10:02:26.017Z,13.90
2022-10-20T10:05:34.791Z,14.00
2022-10-20T10:08:47.054Z,13.90
2022-10-20T10:12:00.468Z,14.00
2022-10-20T10:15:08.859Z,14.00
2022-10-20T10:18:23.820Z,14.00
2022-10-20T10:21:27.655Z,13.80
2022-10-20T10:24:46.435Z,14.00
2022-10-20T10:28:03.359Z,14.00
2022-10-20T10:31:21.154Z,14.00
2022-10-20T10:34:40.950Z,14.00
2022-10-20T10:37:46.431Z,14.00
2022-10-20T10:41:06.522Z,14.00
2022-10-20T10:44:20.519Z,14.10
2022-10-20T10:47:52.492Z,14.00
2022-10-20T10:51:01.800Z,13.80
2022-10-20T10:54:30.029Z,14.10
2022-10-20T10:57:42.720Z,14.10
2022-10-20T11:00:58.986Z,14.10
2022-10-20T11:04:35.700Z,14.10
2022-10-20T11:07:48.617Z,14.10
2022-10-20T11:11:05.633Z,14.10
2022-10-20T11:14:27.791Z,14.10
2022-10-20T11:17:48.195Z,14.10
2022-10-20T11:20:59.660Z,14.20
2022-10-20T11:24:15.741Z,14.10
2022-10-20T11:27:25.616Z,14.10
2022-10-20T11:30:31.591Z,14.00
2022-10-20T11:33:45.237Z,14.00
2022-10-20T11:36:57.944Z,14.00
2022-10-20T11:40:17.815Z,14.00
2022-10-20T11:43:31.598Z,14.00
2022-10-20T11:46:41.709Z,14.00
2022-10-20T11:49:45.974Z,14.50
2022-10-20T11:53:27.350Z,14.00
2022-10-20T11:57:14.065Z,14.00
2022-10-20T12:00:38.753Z,14.00
2022-10-20T12:04:15.486Z,14.00
2022-10-20T12:08:00.885Z,14.10
2022-10-20T12:11:21.041Z,14.10
2022-10-20T12:14:33.718Z,14.10
2022-10-20T12:17:42.751Z,14.10
2022-10-20T12:20:56.316Z,14.10
2022-10-20T12:24:05.659Z,14.10
2022-10-20T12:27:28.720Z,14.00
2022-10-20T12:30:55.258Z,14.10
2022-10-20T12:34:03.715Z,14.10
2022-10-20T12:37:09.467Z,14.10
2022-10-20T12:40:27.233Z,14.10
2022-10-20T12:43:45.767Z,14.00
2022-10-20T12:46:58.329Z,14.00
2022-10-20T12:50:07.822Z,14.00
2022-10-20T12:53:22.604Z,14.00
2022-10-20T12:56:38.527Z,14.00
2022-10-20T12:59:42.361Z,14.00
2022-10-20T13:02:52.014Z,14.00
2022-10-20T13:05:55.167Z,14.00
2022-10-20T13:09:23.991Z,14.00
2022-10-20T13:12:30.472Z,14.30
2022-10-20T13:15:37.836Z,14.40
2022-10-20T13:18:50.497Z,13.90
2022-10-20T13:21:54.087Z,13.80
2022-10-20T13:24:59.495Z,13.90
2022-10-20T13:28:21.550Z,13.90
2022-10-20T13:31:34.158Z,14.00
2022-10-20T13:34:48.148Z,13.90
2022-10-20T13:38:00.513Z,14.00
2022-10-20T13:41:17.173Z,14.00
2022-10-20T13:44:33.255Z,14.00
2022-10-20T13:47:51.100Z,13.90
2022-10-20T13:51:00.888Z,14.00
2022-10-20T13:54:08.236Z,13.90
2022-10-20T13:57:28.914Z,13.90
2022-10-20T14:00:36.144Z,14.50
2022-10-20T14:03:46.912Z,13.90
2022-10-20T14:06:51.725Z,13.90
2022-10-20T14:09:59.027Z,13.80
2022-10-20T14:13:04.016Z,14.20
2022-10-20T14:16:19.191Z,13.70
2022-10-20T14:19:27.888Z,13.70
2022-10-20T14:22:35.905Z,13.60
2022-10-20T14:25:40.936Z,13.60
2022-10-20T14:28:46.409Z,13.20
2022-10-20T14:31:50.386Z,13.60
2022-10-20T14:35:00.004Z,13.50
2022-10-20T14:38:14.690Z,13.60
2022-10-20T14:41:27.816Z,13.60
2022-10-20T14:44:32.108Z,13.50
2022-10-20T14:47:40.900Z,14.40
2022-10-20T14:50:44.211Z,13.50
2022-10-20T14:53:49.006Z,13.50
2022-10-20T14:56:58.415Z,13.50
2022-10-20T15:00:23.441Z,13.50
2022-10-20T15:03:26.734Z,13.50
2022-10-20T15:06:30.279Z,13.60
2022-10-20T15:09:40.919Z,13.50
2022-10-20T15:12:48.913Z,13.50
2022-10-20T15:15:52.110Z,13.40
2022-10-20T15:19:29.847Z,13.40
2022-10-20T15:22:32.980Z,13.40
2022-10-20T15:25:47.361Z,13.30
2022-10-20T15:28:51.967Z,13.40
2022-10-20T15:31:56.051Z,13.30
2022-10-20T15:35:02.276Z,13.30
2022-10-20T15:38:05.456Z,13.30
2022-10-20T15:41:14.109Z,13.20
2022-10-20T15:44:21.991Z,13.20
2022-10-20T15:47:25.360Z,13.10
2022-10-20T15:50:28.505Z,14.20
2022-10-20T15:53:31.669Z,13.10
2022-10-20T15:56:36.484Z,13.20
2022-10-20T15:59:40.148Z,13.10
2022-10-20T16:02:43.768Z,13.10
2022-10-20T16:05:48.136Z,13.00
2022-10-20T16:08:52.833Z,13.00
2022-10-20T16:11:57.366Z,12.40
2022-10-20T16:15:00.579Z,12.90
2022-10-20T16:18:05.874Z,13.00
2022-10-20T16:21:12.541Z,13.00
2022-10-20T16:24:15.736Z,13.00
2022-10-20T16:27:21.219Z,13.00
2022-10-20T16:30:24.487Z,12.90
2022-10-20T16:33:29.712Z,12.90
2022-10-20T16:36:33.711Z,13.00
2022-10-20T16:39:36.967Z,12.90
2022-10-20T16:42:41.665Z,12.90
2022-10-20T16:45:45.001Z,12.90
2022-10-20T16:48:48.506Z,13.00
2022-10-20T16:51:52.823Z,12.90
2022-10-20T16:54:56.038Z,12.90
2022-10-20T16:58:00.962Z,12.90
2022-10-20T17:01:08.369Z,12.90
2022-10-20T17:04:12.963Z,13.00
2022-10-20T17:07:16.561Z,12.90
2022-10-20T17:10:20.281Z,13.00
2022-10-20T17:13:25.364Z,12.90
2022-10-20T17:16:30.356Z,12.90
2022-10-20T17:19:33.543Z,13.00
2022-10-20T17:22:36.886Z,13.00
2022-10-20T17:25:40.131Z,13.00
2022-10-20T17:28:45.353Z,13.00
2022-10-20T17:31:48.476Z,13.00
2022-10-20T17:34:51.699Z,12.90
2022-10-20T17:37:54.763Z,13.10
2022-10-20T17:41:04.198Z,13.10
2022-10-20T17:44:09.375Z,13.10
2022-10-20T17:47:12.453Z,13.10
2022-10-20T17:50:15.855Z,13.10
2022-10-20T17:53:18.940Z,13.10
2022-10-20T17:56:27.049Z,13.20
2022-10-20T17:59:38.247Z,13.20
2022-10-20T18:02:52.739Z,13.20
2022-10-20T18:05:55.686Z,13.20
2022-10-20T18:09:03.317Z,13.30
2022-10-20T18:12:06.724Z,13.30
2022-10-20T18:15:11.277Z,13.40
2022-10-20T18:18:14.340Z,13.30
2022-10-20T18:21:20.279Z,13.30
2022-10-20T18:24:23.584Z,13.40
2022-10-20T18:27:26.736Z,13.40
2022-10-20T18:30:31.111Z,13.40
2022-10-20T18:33:34.389Z,13.40
2022-10-20T18:36:41.964Z,13.50
2022-10-20T18:39:48.879Z,13.50
2022-10-20T18:42:51.940Z,12.90
2022-10-20T18:45:56.376Z,13.50
2022-10-20T18:49:00.676Z,13.90
2022-10-20T18:52:03.896Z,13.50
2022-10-20T18:55:08.591Z,13.50
2022-10-20T18:58:11.718Z,13.50
2022-10-20T19:01:19.619Z,13.60
2022-10-20T19:04:22.647Z,13.60
2022-10-20T19:07:25.677Z,13.60
2022-10-20T19:10:28.740Z,13.60
2022-10-20T19:13:32.244Z,13.70
2022-10-20T19:16:38.321Z,13.70
2022-10-20T19:19:44.161Z,13.60
2022-10-20T19:22:47.266Z,14.40
2022-10-20T19:26:04.618Z,13.70
2022-10-20T19:29:12.903Z,13.70
2022-10-20T19:32:17.587Z,13.70
2022-10-20T19:35:22.010Z,13.70
2022-10-20T19:38:25.230Z,13.70
2022-10-20T19:41:29.459Z,13.70
2022-10-20T19:44:33.104Z,13.70
2022-10-20T19:47:37.677Z,13.80
2022-10-20T19:50:40.835Z,13.80
2022-10-20T19:53:44.867Z,13.80
2022-10-20T19:56:48.298Z,13.80
2022-10-20T19:59:52.877Z,13.80
2022-10-20T20:02:57.413Z,13.80
2022-10-20T20:06:03.339Z,13.80
2022-10-20T20:09:09.286Z,13.80
2022-10-20T20:12:12.510Z,13.80
2022-10-20T20:15:15.715Z,13.80
2022-10-20T20:18:20.732Z,13.80
2022-10-20T20:21:25.450Z,13.80
2022-10-20T20:24:28.660Z,13.80
2022-10-20T20:27:31.841Z,13.80
2022-10-20T20:30:35.462Z,13.80
2022-10-20T20:33:40.114Z,13.80
2022-10-20T20:36:43.572Z,13.80
2022-10-20T20:39:46.658Z,13.90
2022-10-20T20:42:49.885Z,13.90
2022-10-20T20:45:53.202Z,13.90
2022-10-20T20:49:01.524Z,13.90
2022-10-20T20:52:05.110Z,13.90
2022-10-20T20:55:09.376Z,13.90
2022-10-20T20:58:12.456Z,13.90
2022-10-20T21:01:19.087Z,13.90
2022-10-20T21:04:25.822Z,13.90
2022-10-20T21:07:32.755Z,13.90
2022-10-20T21:10:37.901Z,13.90
2022-10-20T21:13:43.959Z,14.60
2022-10-20T21:16:48.807Z,13.90
2022-10-20T21:19:54.548Z,14.00
2022-10-20T21:22:57.662Z,13.90
2022-10-20T21:26:00.908Z,13.80
2022-10-20T21:29:04.440Z,13.90
2022-10-20T21:32:07.695Z,13.90
2022-10-20T21:35:12.704Z,14.20
2022-10-20T21:38:16.093Z,13.90
2022-10-20T21:41:22.808Z,14.00
2022-10-20T21:44:25.938Z,14.00
2022-10-20T21:47:29.285Z,14.00
2022-10-20T21:50:38.274Z,14.00
2022-10-20T21:53:42.246Z,14.00
2022-10-20T21:56:47.396Z,14.00
2022-10-20T21:59:50.574Z,13.90
2022-10-20T22:02:55.064Z,14.00
2022-10-20T22:05:59.796Z,14.00
2022-10-20T22:09:03.756Z,13.90
2022-10-20T22:12:07.821Z,14.00
2022-10-20T22:15:11.290Z,14.00
2022-10-20T22:18:15.000Z,14.40
2022-10-20T22:21:20.394Z,13.90
2022-10-20T22:24:24.802Z,13.90
2022-10-20T22:27:41.906Z,14.00
2022-10-20T22:30:45.770Z,13.90
2022-10-20T22:33:48.848Z,14.10
2022-10-20T22:36:53.227Z,13.90
2022-10-20T22:39:56.384Z,14.70
2022-10-20T22:42:59.461Z,13.90
2022-10-20T22:46:02.737Z,13.90
2022-10-20T22:49:05.978Z,13.90
2022-10-20T22:52:10.489Z,13.90
2022-10-20T22:55:13.896Z,13.90
2022-10-20T22:58:17.291Z,13.90
2022-10-20T23:01:23.541Z,13.90
2022-10-20T23:04:26.879Z,13.80
2022-10-20T23:07:31.351Z,13.90
2022-10-20T23:10:34.704Z,13.90
2022-10-20T23:13:37.853Z,13.90
2022-10-20T23:16:40.881Z,13.80
2022-10-20T23:19:45.283Z,13.80
2022-10-20T23:22:49.801Z,13.80
2022-10-20T23:25:53.424Z,13.80
2022-10-20T23:28:56.572Z,13.80
2022-10-20T23:31:59.699Z,13.80
2022-10-20T23:35:02.857Z,13.80
2022-10-20T23:38:10.704Z,13.90
2022-10-20T23:41:14.319Z,13.80
2022-10-20T23:44:17.447Z,13.80
2022-10-20T23:47:21.394Z,13.80
2022-10-20T23:50:25.907Z,13.80
2022-10-20T23:53:32.679Z,13.80
2022-10-20T23:56:36.167Z,13.80
2022-10-20T23:59:39.594Z,13.80
